sensor_id;sensor_type;location;lat;lon;timestamp;P1;durP1;ratioP1;P2;durP2;ratioP2
75772;SDS011;64381;0.000;0.000;2024-02-26T00:01:23;3.63;;;1.60;;
75772;SDS011;64381;0.000;0.000;2024-02-26T00:03:49;3.80;;;1.70;;
75772;SDS011;64381;0.000;0.000;2024-02-26T00:06:14;3.57;;;1.80;;
75772;SDS011;64381;0.000;0.000;2024-02-26T00:08:39;3.93;;;1.73;;
75772;SDS011;64381;0.000;0.000;2024-02-26T00:11:04;3.83;;;1.90;;
75772;SDS011;64381;0.000;0.000;2024-02-26T00:13:29;4.10;;;1.63;;
75772;SDS011;64381;0.000;0.000;2024-02-26T00:15:55;3.47;;;1.60;;
75772;SDS011;64381;0.000;0.000;2024-02-26T00:18:20;3.57;;;1.60;;
75772;SDS011;64381;0.000;0.000;2024-02-26T00:20:45;3.53;;;1.80;;
75772;SDS011;64381;0.000;0.000;2024-02-26T00:23:10;3.77;;;1.70;;
75772;SDS011;64381;0.000;0.000;2024-02-26T00:25:35;3.93;;;1.80;;
75772;SDS011;64381;0.000;0.000;2024-02-26T00:28:01;4.00;;;1.60;;
75772;SDS011;64381;0.000;0.000;2024-02-26T00:30:26;4.80;;;1.87;;
75772;SDS011;64381;0.000;0.000;2024-02-26T00:32:51;4.20;;;1.97;;
75772;SDS011;64381;0.000;0.000;2024-02-26T00:35:16;3.87;;;1.70;;
75772;SDS011;64381;0.000;0.000;2024-02-26T00:37:42;3.80;;;1.67;;
75772;SDS011;64381;0.000;0.000;2024-02-26T00:40:07;3.83;;;1.70;;
75772;SDS011;64381;0.000;0.000;2024-02-26T00:42:32;3.40;;;1.70;;
75772;SDS011;64381;0.000;0.000;2024-02-26T00:44:57;3.50;;;1.80;;
75772;SDS011;64381;0.000;0.000;2024-02-26T00:47:23;4.00;;;1.80;;
75772;SDS011;64381;0.000;0.000;2024-02-26T00:49:48;4.40;;;2.10;;
75772;SDS011;64381;0.000;0.000;2024-02-26T00:52:13;4.17;;;1.67;;
75772;SDS011;64381;0.000;0.000;2024-02-26T00:54:38;4.43;;;1.83;;
75772;SDS011;64381;0.000;0.000;2024-02-26T00:57:03;3.60;;;1.60;;
75772;SDS011;64381;0.000;0.000;2024-02-26T00:59:29;4.23;;;1.90;;
75772;SDS011;64381;0.000;0.000;2024-02-26T01:01:54;4.53;;;1.73;;
75772;SDS011;64381;0.000;0.000;2024-02-26T01:04:19;4.40;;;1.90;;
75772;SDS011;64381;0.000;0.000;2024-02-26T01:06:44;4.20;;;1.73;;
75772;SDS011;64381;0.000;0.000;2024-02-26T01:09:09;3.87;;;2.00;;
75772;SDS011;64381;0.000;0.000;2024-02-26T01:11:35;4.67;;;2.10;;
75772;SDS011;64381;0.000;0.000;2024-02-26T01:14:00;4.03;;;1.90;;
75772;SDS011;64381;0.000;0.000;2024-02-26T01:16:25;4.60;;;1.90;;
75772;SDS011;64381;0.000;0.000;2024-02-26T01:18:51;3.40;;;1.70;;
75772;SDS011;64381;0.000;0.000;2024-02-26T01:21:16;3.83;;;1.83;;
75772;SDS011;64381;0.000;0.000;2024-02-26T01:23:41;3.90;;;1.93;;
75772;SDS011;64381;0.000;0.000;2024-02-26T01:26:06;3.47;;;1.90;;
75772;SDS011;64381;0.000;0.000;2024-02-26T01:28:31;4.00;;;2.03;;
75772;SDS011;64381;0.000;0.000;2024-02-26T01:30:57;3.97;;;1.83;;
75772;SDS011;64381;0.000;0.000;2024-02-26T01:33:22;3.83;;;2.00;;
75772;SDS011;64381;0.000;0.000;2024-02-26T01:35:47;3.53;;;1.77;;
75772;SDS011;64381;0.000;0.000;2024-02-26T01:38:12;4.60;;;2.00;;
75772;SDS011;64381;0.000;0.000;2024-02-26T01:40:38;3.67;;;1.60;;
75772;SDS011;64381;0.000;0.000;2024-02-26T01:43:03;4.37;;;1.87;;
75772;SDS011;64381;0.000;0.000;2024-02-26T01:45:28;4.20;;;1.70;;
75772;SDS011;64381;0.000;0.000;2024-02-26T01:47:53;3.50;;;1.77;;
75772;SDS011;64381;0.000;0.000;2024-02-26T01:50:19;3.50;;;1.73;;
75772;SDS011;64381;0.000;0.000;2024-02-26T01:52:49;3.63;;;1.93;;
75772;SDS011;64381;0.000;0.000;2024-02-26T01:55:15;3.75;;;1.60;;
75772;SDS011;64381;0.000;0.000;2024-02-26T01:57:42;3.72;;;1.73;;
75772;SDS011;64381;0.000;0.000;2024-02-26T02:00:10;4.30;;;1.70;;
75772;SDS011;64381;0.000;0.000;2024-02-26T02:02:35;4.18;;;1.77;;
75772;SDS011;64381;0.000;0.000;2024-02-26T02:05:01;3.70;;;1.80;;
75772;SDS011;64381;0.000;0.000;2024-02-26T02:07:26;3.90;;;1.77;;
75772;SDS011;64381;0.000;0.000;2024-02-26T02:09:52;4.88;;;1.90;;
75772;SDS011;64381;0.000;0.000;2024-02-26T02:12:18;4.22;;;1.85;;
75772;SDS011;64381;0.000;0.000;2024-02-26T02:14:44;3.90;;;1.90;;
75772;SDS011;64381;0.000;0.000;2024-02-26T02:17:09;4.07;;;1.70;;
75772;SDS011;64381;0.000;0.000;2024-02-26T02:19:34;4.57;;;2.00;;
75772;SDS011;64381;0.000;0.000;2024-02-26T02:21:59;3.80;;;1.70;;
75772;SDS011;64381;0.000;0.000;2024-02-26T02:24:25;4.10;;;1.67;;
75772;SDS011;64381;0.000;0.000;2024-02-26T02:26:50;4.20;;;1.80;;
75772;SDS011;64381;0.000;0.000;2024-02-26T02:29:15;4.10;;;1.83;;
75772;SDS011;64381;0.000;0.000;2024-02-26T02:31:41;3.90;;;1.73;;
75772;SDS011;64381;0.000;0.000;2024-02-26T02:34:06;4.40;;;1.50;;
75772;SDS011;64381;0.000;0.000;2024-02-26T02:36:32;3.92;;;1.90;;
75772;SDS011;64381;0.000;0.000;2024-02-26T02:38:57;4.10;;;1.80;;
75772;SDS011;64381;0.000;0.000;2024-02-26T02:41:23;3.80;;;1.80;;
75772;SDS011;64381;0.000;0.000;2024-02-26T02:43:48;4.70;;;1.70;;
75772;SDS011;64381;0.000;0.000;2024-02-26T02:46:13;4.33;;;1.90;;
75772;SDS011;64381;0.000;0.000;2024-02-26T02:48:38;4.03;;;1.77;;
75772;SDS011;64381;0.000;0.000;2024-02-26T02:51:04;4.37;;;1.77;;
75772;SDS011;64381;0.000;0.000;2024-02-26T02:53:30;3.50;;;1.70;;
75772;SDS011;64381;0.000;0.000;2024-02-26T02:55:55;3.70;;;1.80;;
75772;SDS011;64381;0.000;0.000;2024-02-26T02:58:20;4.30;;;2.10;;
75772;SDS011;64381;0.000;0.000;2024-02-26T03:00:45;4.13;;;1.80;;
75772;SDS011;64381;0.000;0.000;2024-02-26T03:03:11;3.73;;;1.80;;
75772;SDS011;64381;0.000;0.000;2024-02-26T03:05:36;3.90;;;1.67;;
75772;SDS011;64381;0.000;0.000;2024-02-26T03:08:01;4.27;;;1.80;;
75772;SDS011;64381;0.000;0.000;2024-02-26T03:10:26;4.10;;;2.00;;
75772;SDS011;64381;0.000;0.000;2024-02-26T03:12:52;4.17;;;1.77;;
75772;SDS011;64381;0.000;0.000;2024-02-26T03:15:17;3.77;;;1.90;;
75772;SDS011;64381;0.000;0.000;2024-02-26T03:17:42;5.13;;;1.90;;
75772;SDS011;64381;0.000;0.000;2024-02-26T03:20:08;4.07;;;2.10;;
75772;SDS011;64381;0.000;0.000;2024-02-26T03:22:33;4.20;;;2.00;;
75772;SDS011;64381;0.000;0.000;2024-02-26T03:24:59;4.10;;;2.03;;
75772;SDS011;64381;0.000;0.000;2024-02-26T03:27:24;3.90;;;1.90;;
75772;SDS011;64381;0.000;0.000;2024-02-26T03:29:49;3.50;;;1.70;;
75772;SDS011;64381;0.000;0.000;2024-02-26T03:32:14;3.40;;;1.70;;
75772;SDS011;64381;0.000;0.000;2024-02-26T03:34:39;4.30;;;1.90;;
75772;SDS011;64381;0.000;0.000;2024-02-26T03:37:05;3.97;;;1.80;;
75772;SDS011;64381;0.000;0.000;2024-02-26T03:39:30;3.77;;;1.70;;
75772;SDS011;64381;0.000;0.000;2024-02-26T03:41:55;3.70;;;1.70;;
75772;SDS011;64381;0.000;0.000;2024-02-26T03:44:20;3.93;;;1.70;;
75772;SDS011;64381;0.000;0.000;2024-02-26T03:46:45;3.47;;;1.80;;
75772;SDS011;64381;0.000;0.000;2024-02-26T03:49:11;5.43;;;1.90;;
75772;SDS011;64381;0.000;0.000;2024-02-26T03:51:36;3.97;;;1.80;;
75772;SDS011;64381;0.000;0.000;2024-02-26T03:54:01;3.77;;;1.63;;
75772;SDS011;64381;0.000;0.000;2024-02-26T03:56:27;3.73;;;1.60;;
75772;SDS011;64381;0.000;0.000;2024-02-26T03:58:52;4.30;;;1.80;;
75772;SDS011;64381;0.000;0.000;2024-02-26T04:01:18;3.30;;;1.57;;
75772;SDS011;64381;0.000;0.000;2024-02-26T04:03:43;3.93;;;1.73;;
75772;SDS011;64381;0.000;0.000;2024-02-26T04:06:08;3.40;;;1.70;;
75772;SDS011;64381;0.000;0.000;2024-02-26T04:08:34;3.42;;;1.83;;
75772;SDS011;64381;0.000;0.000;2024-02-26T04:11:00;4.73;;;1.80;;
75772;SDS011;64381;0.000;0.000;2024-02-26T04:13:25;4.00;;;1.80;;
75772;SDS011;64381;0.000;0.000;2024-02-26T04:15:50;3.70;;;1.77;;
75772;SDS011;64381;0.000;0.000;2024-02-26T04:18:15;4.23;;;1.60;;
75772;SDS011;64381;0.000;0.000;2024-02-26T04:20:40;4.10;;;1.83;;
75772;SDS011;64381;0.000;0.000;2024-02-26T04:23:06;4.50;;;1.80;;
75772;SDS011;64381;0.000;0.000;2024-02-26T04:25:31;4.23;;;1.93;;
75772;SDS011;64381;0.000;0.000;2024-02-26T04:27:56;4.03;;;1.90;;
75772;SDS011;64381;0.000;0.000;2024-02-26T04:30:21;4.10;;;1.73;;
75772;SDS011;64381;0.000;0.000;2024-02-26T04:32:46;3.57;;;1.60;;
75772;SDS011;64381;0.000;0.000;2024-02-26T04:35:12;3.83;;;1.83;;
75772;SDS011;64381;0.000;0.000;2024-02-26T04:37:37;3.77;;;1.60;;
75772;SDS011;64381;0.000;0.000;2024-02-26T04:40:02;3.30;;;1.50;;
75772;SDS011;64381;0.000;0.000;2024-02-26T04:42:28;3.73;;;1.80;;
75772;SDS011;64381;0.000;0.000;2024-02-26T04:44:54;4.50;;;2.20;;
75772;SDS011;64381;0.000;0.000;2024-02-26T04:47:20;4.20;;;1.75;;
75772;SDS011;64381;0.000;0.000;2024-02-26T04:49:45;3.70;;;1.67;;
75772;SDS011;64381;0.000;0.000;2024-02-26T04:52:11;3.90;;;2.10;;
75772;SDS011;64381;0.000;0.000;2024-02-26T04:54:36;3.63;;;2.00;;
75772;SDS011;64381;0.000;0.000;2024-02-26T04:57:01;3.80;;;1.67;;
75772;SDS011;64381;0.000;0.000;2024-02-26T04:59:27;3.57;;;1.80;;
75772;SDS011;64381;0.000;0.000;2024-02-26T05:01:52;3.93;;;1.70;;
75772;SDS011;64381;0.000;0.000;2024-02-26T05:04:17;4.30;;;1.80;;
75772;SDS011;64381;0.000;0.000;2024-02-26T05:06:42;3.83;;;1.67;;
75772;SDS011;64381;0.000;0.000;2024-02-26T05:09:07;3.43;;;1.50;;
75772;SDS011;64381;0.000;0.000;2024-02-26T05:11:33;4.53;;;1.80;;
75772;SDS011;64381;0.000;0.000;2024-02-26T05:13:58;3.87;;;1.90;;
75772;SDS011;64381;0.000;0.000;2024-02-26T05:16:23;4.40;;;1.90;;
75772;SDS011;64381;0.000;0.000;2024-02-26T05:18:48;4.73;;;1.73;;
75772;SDS011;64381;0.000;0.000;2024-02-26T05:21:13;4.70;;;1.80;;
75772;SDS011;64381;0.000;0.000;2024-02-26T05:23:39;3.70;;;1.73;;
75772;SDS011;64381;0.000;0.000;2024-02-26T05:26:04;3.60;;;1.50;;
75772;SDS011;64381;0.000;0.000;2024-02-26T05:28:30;4.43;;;1.70;;
75772;SDS011;64381;0.000;0.000;2024-02-26T05:30:55;3.40;;;1.70;;
75772;SDS011;64381;0.000;0.000;2024-02-26T05:33:20;3.40;;;1.50;;
75772;SDS011;64381;0.000;0.000;2024-02-26T05:35:46;3.67;;;1.63;;
75772;SDS011;64381;0.000;0.000;2024-02-26T05:38:11;3.92;;;1.83;;
75772;SDS011;64381;0.000;0.000;2024-02-26T05:40:36;3.90;;;1.87;;
75772;SDS011;64381;0.000;0.000;2024-02-26T05:43:01;3.80;;;1.77;;
75772;SDS011;64381;0.000;0.000;2024-02-26T05:45:26;3.60;;;1.83;;
75772;SDS011;64381;0.000;0.000;2024-02-26T05:47:52;3.63;;;1.70;;
75772;SDS011;64381;0.000;0.000;2024-02-26T05:50:17;3.70;;;1.70;;
75772;SDS011;64381;0.000;0.000;2024-02-26T05:52:42;3.43;;;1.80;;
75772;SDS011;64381;0.000;0.000;2024-02-26T05:55:08;4.07;;;1.97;;
75772;SDS011;64381;0.000;0.000;2024-02-26T05:57:33;3.50;;;1.67;;
75772;SDS011;64381;0.000;0.000;2024-02-26T05:59:59;3.30;;;1.67;;
75772;SDS011;64381;0.000;0.000;2024-02-26T06:02:24;3.50;;;1.53;;
75772;SDS011;64381;0.000;0.000;2024-02-26T06:04:49;3.87;;;1.83;;
75772;SDS011;64381;0.000;0.000;2024-02-26T06:07:14;3.60;;;1.70;;
75772;SDS011;64381;0.000;0.000;2024-02-26T06:09:40;3.40;;;1.73;;
75772;SDS011;64381;0.000;0.000;2024-02-26T06:12:05;3.63;;;1.80;;
75772;SDS011;64381;0.000;0.000;2024-02-26T06:14:31;3.23;;;1.50;;
75772;SDS011;64381;0.000;0.000;2024-02-26T06:16:56;3.40;;;1.67;;
75772;SDS011;64381;0.000;0.000;2024-02-26T06:19:21;3.43;;;1.80;;
75772;SDS011;64381;0.000;0.000;2024-02-26T06:21:46;3.53;;;1.73;;
75772;SDS011;64381;0.000;0.000;2024-02-26T06:24:11;3.57;;;1.80;;
75772;SDS011;64381;0.000;0.000;2024-02-26T06:26:37;3.33;;;1.60;;
75772;SDS011;64381;0.000;0.000;2024-02-26T06:29:02;3.85;;;1.80;;
75772;SDS011;64381;0.000;0.000;2024-02-26T06:31:27;3.97;;;1.80;;
75772;SDS011;64381;0.000;0.000;2024-02-26T06:33:53;3.50;;;1.53;;
75772;SDS011;64381;0.000;0.000;2024-02-26T06:36:18;3.47;;;1.63;;
75772;SDS011;64381;0.000;0.000;2024-02-26T06:38:43;3.70;;;1.50;;
75772;SDS011;64381;0.000;0.000;2024-02-26T06:41:09;4.07;;;1.83;;
75772;SDS011;64381;0.000;0.000;2024-02-26T06:43:34;3.47;;;1.87;;
75772;SDS011;64381;0.000;0.000;2024-02-26T06:45:59;4.33;;;1.77;;
75772;SDS011;64381;0.000;0.000;2024-02-26T06:48:24;4.00;;;1.80;;
75772;SDS011;64381;0.000;0.000;2024-02-26T06:50:50;3.27;;;1.60;;
75772;SDS011;64381;0.000;0.000;2024-02-26T06:53:15;3.83;;;1.80;;
75772;SDS011;64381;0.000;0.000;2024-02-26T06:55:40;3.50;;;1.80;;
75772;SDS011;64381;0.000;0.000;2024-02-26T06:58:06;3.23;;;1.60;;
75772;SDS011;64381;0.000;0.000;2024-02-26T07:00:31;3.20;;;1.60;;
75772;SDS011;64381;0.000;0.000;2024-02-26T07:02:56;3.33;;;1.60;;
75772;SDS011;64381;0.000;0.000;2024-02-26T07:05:21;3.43;;;1.80;;
75772;SDS011;64381;0.000;0.000;2024-02-26T07:07:47;3.30;;;1.60;;
75772;SDS011;64381;0.000;0.000;2024-02-26T07:10:12;3.27;;;1.57;;
75772;SDS011;64381;0.000;0.000;2024-02-26T07:12:38;3.00;;;1.50;;
75772;SDS011;64381;0.000;0.000;2024-02-26T07:15:03;3.35;;;1.65;;
75772;SDS011;64381;0.000;0.000;2024-02-26T07:17:29;3.43;;;1.67;;
75772;SDS011;64381;0.000;0.000;2024-02-26T07:19:54;3.30;;;1.60;;
75772;SDS011;64381;0.000;0.000;2024-02-26T07:22:19;4.20;;;1.70;;
75772;SDS011;64381;0.000;0.000;2024-02-26T07:24:45;3.40;;;1.60;;
75772;SDS011;64381;0.000;0.000;2024-02-26T07:27:10;3.57;;;1.60;;
75772;SDS011;64381;0.000;0.000;2024-02-26T07:29:35;3.63;;;1.57;;
75772;SDS011;64381;0.000;0.000;2024-02-26T07:32:00;3.57;;;1.50;;
75772;SDS011;64381;0.000;0.000;2024-02-26T07:34:25;3.20;;;1.50;;
75772;SDS011;64381;0.000;0.000;2024-02-26T07:36:51;3.50;;;1.43;;
75772;SDS011;64381;0.000;0.000;2024-02-26T07:39:16;3.63;;;1.63;;
75772;SDS011;64381;0.000;0.000;2024-02-26T07:41:41;3.40;;;1.50;;
75772;SDS011;64381;0.000;0.000;2024-02-26T07:44:06;4.00;;;1.90;;
75772;SDS011;64381;0.000;0.000;2024-02-26T07:46:31;3.40;;;1.70;;
75772;SDS011;64381;0.000;0.000;2024-02-26T07:48:57;3.40;;;1.43;;
75772;SDS011;64381;0.000;0.000;2024-02-26T07:51:22;3.23;;;1.50;;
75772;SDS011;64381;0.000;0.000;2024-02-26T07:53:47;3.57;;;1.70;;
75772;SDS011;64381;0.000;0.000;2024-02-26T07:56:12;4.00;;;1.70;;
75772;SDS011;64381;0.000;0.000;2024-02-26T07:58:37;3.03;;;1.30;;
75772;SDS011;64381;0.000;0.000;2024-02-26T08:01:03;3.00;;;1.50;;
75772;SDS011;64381;0.000;0.000;2024-02-26T08:03:28;3.70;;;1.70;;
75772;SDS011;64381;0.000;0.000;2024-02-26T08:05:53;3.40;;;1.60;;
75772;SDS011;64381;0.000;0.000;2024-02-26T08:08:18;4.70;;;1.77;;
75772;SDS011;64381;0.000;0.000;2024-02-26T08:10:44;2.93;;;1.50;;
75772;SDS011;64381;0.000;0.000;2024-02-26T08:13:09;3.30;;;1.53;;
75772;SDS011;64381;0.000;0.000;2024-02-26T08:15:34;2.90;;;1.50;;
75772;SDS011;64381;0.000;0.000;2024-02-26T08:18:01;3.40;;;1.48;;
75772;SDS011;64381;0.000;0.000;2024-02-26T08:20:26;3.20;;;1.60;;
75772;SDS011;64381;0.000;0.000;2024-02-26T08:22:51;3.97;;;1.80;;
75772;SDS011;64381;0.000;0.000;2024-02-26T08:25:17;3.53;;;1.50;;
75772;SDS011;64381;0.000;0.000;2024-02-26T08:27:42;3.50;;;1.60;;
75772;SDS011;64381;0.000;0.000;2024-02-26T08:30:07;3.50;;;1.60;;
75772;SDS011;64381;0.000;0.000;2024-02-26T08:32:33;3.38;;;1.65;;
75772;SDS011;64381;0.000;0.000;2024-02-26T08:34:58;3.20;;;1.33;;
75772;SDS011;64381;0.000;0.000;2024-02-26T08:37:23;3.53;;;1.60;;
75772;SDS011;64381;0.000;0.000;2024-02-26T08:39:48;3.60;;;1.50;;
75772;SDS011;64381;0.000;0.000;2024-02-26T08:42:14;3.40;;;1.43;;
75772;SDS011;64381;0.000;0.000;2024-02-26T08:44:39;4.43;;;1.77;;
75772;SDS011;64381;0.000;0.000;2024-02-26T08:47:04;3.30;;;1.50;;
75772;SDS011;64381;0.000;0.000;2024-02-26T08:49:29;4.47;;;1.50;;
75772;SDS011;64381;0.000;0.000;2024-02-26T08:51:54;4.17;;;1.77;;
75772;SDS011;64381;0.000;0.000;2024-02-26T08:54:20;3.47;;;1.57;;
75772;SDS011;64381;0.000;0.000;2024-02-26T08:56:45;3.00;;;1.40;;
75772;SDS011;64381;0.000;0.000;2024-02-26T08:59:10;3.03;;;1.63;;
75772;SDS011;64381;0.000;0.000;2024-02-26T09:01:35;3.53;;;1.63;;
75772;SDS011;64381;0.000;0.000;2024-02-26T09:04:00;6.20;;;1.60;;
75772;SDS011;64381;0.000;0.000;2024-02-26T09:06:26;3.30;;;1.30;;
75772;SDS011;64381;0.000;0.000;2024-02-26T09:08:51;3.57;;;1.70;;
75772;SDS011;64381;0.000;0.000;2024-02-26T09:11:16;3.00;;;1.40;;
75772;SDS011;64381;0.000;0.000;2024-02-26T09:13:41;3.60;;;1.60;;
75772;SDS011;64381;0.000;0.000;2024-02-26T09:16:07;2.90;;;1.40;;
75772;SDS011;64381;0.000;0.000;2024-02-26T09:18:32;3.53;;;1.60;;
75772;SDS011;64381;0.000;0.000;2024-02-26T09:20:57;3.43;;;1.40;;
75772;SDS011;64381;0.000;0.000;2024-02-26T09:23:22;3.10;;;1.50;;
75772;SDS011;64381;0.000;0.000;2024-02-26T09:25:47;3.23;;;1.50;;
75772;SDS011;64381;0.000;0.000;2024-02-26T09:28:13;3.13;;;1.50;;
75772;SDS011;64381;0.000;0.000;2024-02-26T09:30:38;3.23;;;1.53;;
75772;SDS011;64381;0.000;0.000;2024-02-26T09:33:03;3.10;;;1.50;;
75772;SDS011;64381;0.000;0.000;2024-02-26T09:35:29;3.10;;;1.40;;
75772;SDS011;64381;0.000;0.000;2024-02-26T09:37:54;3.87;;;1.30;;
75772;SDS011;64381;0.000;0.000;2024-02-26T09:40:19;3.43;;;1.50;;
75772;SDS011;64381;0.000;0.000;2024-02-26T09:42:45;3.58;;;1.60;;
75772;SDS011;64381;0.000;0.000;2024-02-26T09:45:11;3.77;;;1.67;;
75772;SDS011;64381;0.000;0.000;2024-02-26T09:47:42;3.03;;;1.40;;
75772;SDS011;64381;0.000;0.000;2024-02-26T09:50:09;3.10;;;1.30;;
75772;SDS011;64381;0.000;0.000;2024-02-26T09:52:34;3.58;;;1.38;;
75772;SDS011;64381;0.000;0.000;2024-02-26T09:55:03;3.10;;;1.42;;
75772;SDS011;64381;0.000;0.000;2024-02-26T09:57:29;2.70;;;1.10;;
75772;SDS011;64381;0.000;0.000;2024-02-26T09:59:55;3.45;;;1.38;;
75772;SDS011;64381;0.000;0.000;2024-02-26T10:02:24;3.58;;;1.40;;
75772;SDS011;64381;0.000;0.000;2024-02-26T10:04:49;3.50;;;1.40;;
75772;SDS011;64381;0.000;0.000;2024-02-26T10:07:15;3.93;;;1.40;;
75772;SDS011;64381;0.000;0.000;2024-02-26T10:09:41;3.40;;;1.58;;
75772;SDS011;64381;0.000;0.000;2024-02-26T10:12:07;3.30;;;1.40;;
75772;SDS011;64381;0.000;0.000;2024-02-26T10:14:35;3.20;;;1.40;;
75772;SDS011;64381;0.000;0.000;2024-02-26T10:17:00;3.10;;;1.40;;
75772;SDS011;64381;0.000;0.000;2024-02-26T10:19:26;3.00;;;1.30;;
75772;SDS011;64381;0.000;0.000;2024-02-26T10:21:59;3.35;;;1.50;;
75772;SDS011;64381;0.000;0.000;2024-02-26T10:24:26;3.70;;;1.50;;
75772;SDS011;64381;0.000;0.000;2024-02-26T10:26:52;2.92;;;1.30;;
75772;SDS011;64381;0.000;0.000;2024-02-26T10:29:18;3.10;;;1.40;;
75772;SDS011;64381;0.000;0.000;2024-02-26T10:31:44;3.15;;;1.50;;
75772;SDS011;64381;0.000;0.000;2024-02-26T10:34:09;3.20;;;1.30;;
75772;SDS011;64381;0.000;0.000;2024-02-26T10:36:35;3.07;;;1.30;;
75772;SDS011;64381;0.000;0.000;2024-02-26T10:39:04;3.93;;;1.40;;
75772;SDS011;64381;0.000;0.000;2024-02-26T10:41:30;2.90;;;1.30;;
75772;SDS011;64381;0.000;0.000;2024-02-26T10:43:55;3.03;;;1.20;;
75772;SDS011;64381;0.000;0.000;2024-02-26T10:46:20;2.90;;;1.40;;
75772;SDS011;64381;0.000;0.000;2024-02-26T10:48:50;3.45;;;1.63;;
75772;SDS011;64381;0.000;0.000;2024-02-26T10:51:16;2.83;;;1.30;;
75772;SDS011;64381;0.000;0.000;2024-02-26T10:53:45;3.03;;;1.10;;
75772;SDS011;64381;0.000;0.000;2024-02-26T10:56:12;2.90;;;1.30;;
75772;SDS011;64381;0.000;0.000;2024-02-26T10:58:40;3.00;;;1.20;;
75772;SDS011;64381;0.000;0.000;2024-02-26T11:01:07;2.90;;;1.30;;
75772;SDS011;64381;0.000;0.000;2024-02-26T11:03:34;3.07;;;1.30;;
75772;SDS011;64381;0.000;0.000;2024-02-26T11:06:00;3.00;;;1.30;;
75772;SDS011;64381;0.000;0.000;2024-02-26T11:08:26;3.47;;;1.40;;
75772;SDS011;64381;0.000;0.000;2024-02-26T11:10:55;3.13;;;1.20;;
75772;SDS011;64381;0.000;0.000;2024-02-26T11:13:21;2.90;;;1.10;;
75772;SDS011;64381;0.000;0.000;2024-02-26T11:15:50;2.88;;;1.10;;
75772;SDS011;64381;0.000;0.000;2024-02-26T11:18:16;3.25;;;1.33;;
75772;SDS011;64381;0.000;0.000;2024-02-26T11:20:44;3.50;;;1.30;;
75772;SDS011;64381;0.000;0.000;2024-02-26T11:23:10;3.30;;;1.40;;
75772;SDS011;64381;0.000;0.000;2024-02-26T11:25:35;3.17;;;1.40;;
75772;SDS011;64381;0.000;0.000;2024-02-26T11:28:02;2.83;;;1.23;;
75772;SDS011;64381;0.000;0.000;2024-02-26T11:30:30;2.55;;;1.02;;
75772;SDS011;64381;0.000;0.000;2024-02-26T11:32:58;3.00;;;1.40;;
75772;SDS011;64381;0.000;0.000;2024-02-26T11:35:23;3.10;;;1.17;;
75772;SDS011;64381;0.000;0.000;2024-02-26T11:37:55;2.73;;;1.27;;
75772;SDS011;64381;0.000;0.000;2024-02-26T11:40:24;2.90;;;1.20;;
75772;SDS011;64381;0.000;0.000;2024-02-26T11:42:50;3.00;;;1.35;;
75772;SDS011;64381;0.000;0.000;2024-02-26T11:48:15;3.05;;;1.20;;
75772;SDS011;64381;0.000;0.000;2024-02-26T11:50:47;2.80;;;1.10;;
75772;SDS011;64381;0.000;0.000;2024-02-26T11:53:19;3.22;;;1.30;;
75772;SDS011;64381;0.000;0.000;2024-02-26T11:58:39;3.30;;;1.30;;
75772;SDS011;64381;0.000;0.000;2024-02-26T12:01:04;2.70;;;1.10;;
75772;SDS011;64381;0.000;0.000;2024-02-26T12:03:30;3.87;;;1.20;;
75772;SDS011;64381;0.000;0.000;2024-02-26T12:05:56;2.80;;;1.10;;
75772;SDS011;64381;0.000;0.000;2024-02-26T12:08:21;3.53;;;1.30;;
75772;SDS011;64381;0.000;0.000;2024-02-26T12:10:46;2.73;;;1.20;;
75772;SDS011;64381;0.000;0.000;2024-02-26T12:13:12;2.70;;;1.17;;
75772;SDS011;64381;0.000;0.000;2024-02-26T12:15:39;2.90;;;1.20;;
75772;SDS011;64381;0.000;0.000;2024-02-26T12:18:06;3.08;;;1.30;;
75772;SDS011;64381;0.000;0.000;2024-02-26T12:20:33;2.83;;;1.10;;
75772;SDS011;64381;0.000;0.000;2024-02-26T12:22:58;2.80;;;1.10;;
75772;SDS011;64381;0.000;0.000;2024-02-26T12:25:27;2.97;;;1.27;;
75772;SDS011;64381;0.000;0.000;2024-02-26T12:27:54;2.90;;;1.13;;
75772;SDS011;64381;0.000;0.000;2024-02-26T12:30:20;3.20;;;1.40;;
75772;SDS011;64381;0.000;0.000;2024-02-26T12:32:46;3.03;;;1.40;;
75772;SDS011;64381;0.000;0.000;2024-02-26T12:35:12;2.58;;;1.08;;
75772;SDS011;64381;0.000;0.000;2024-02-26T12:37:38;3.60;;;1.30;;
75772;SDS011;64381;0.000;0.000;2024-02-26T12:40:05;3.00;;;1.20;;
75772;SDS011;64381;0.000;0.000;2024-02-26T12:42:32;2.72;;;1.13;;
75772;SDS011;64381;0.000;0.000;2024-02-26T12:44:57;3.78;;;1.30;;
75772;SDS011;64381;0.000;0.000;2024-02-26T12:47:23;2.63;;;1.20;;
75772;SDS011;64381;0.000;0.000;2024-02-26T12:49:48;2.77;;;1.20;;
75772;SDS011;64381;0.000;0.000;2024-02-26T12:52:13;2.93;;;1.30;;
75772;SDS011;64381;0.000;0.000;2024-02-26T12:54:39;2.60;;;1.08;;
75772;SDS011;64381;0.000;0.000;2024-02-26T12:57:05;3.58;;;1.10;;
75772;SDS011;64381;0.000;0.000;2024-02-26T12:59:32;2.67;;;1.10;;
75772;SDS011;64381;0.000;0.000;2024-02-26T13:01:59;2.70;;;1.15;;
75772;SDS011;64381;0.000;0.000;2024-02-26T13:04:25;2.90;;;1.10;;
75772;SDS011;64381;0.000;0.000;2024-02-26T13:06:52;2.80;;;1.10;;
75772;SDS011;64381;0.000;0.000;2024-02-26T13:09:17;2.77;;;1.10;;
75772;SDS011;64381;0.000;0.000;2024-02-26T13:11:43;2.80;;;1.20;;
75772;SDS011;64381;0.000;0.000;2024-02-26T13:14:08;2.70;;;1.30;;
75772;SDS011;64381;0.000;0.000;2024-02-26T13:16:44;2.70;;;1.10;;
75772;SDS011;64381;0.000;0.000;2024-02-26T13:19:09;3.13;;;1.10;;
75772;SDS011;64381;0.000;0.000;2024-02-26T13:21:35;2.70;;;1.17;;
75772;SDS011;64381;0.000;0.000;2024-02-26T13:24:00;2.80;;;1.20;;
75772;SDS011;64381;0.000;0.000;2024-02-26T13:26:25;2.80;;;1.10;;
75772;SDS011;64381;0.000;0.000;2024-02-26T13:29:03;3.27;;;1.10;;
75772;SDS011;64381;0.000;0.000;2024-02-26T13:31:28;2.70;;;1.05;;
75772;SDS011;64381;0.000;0.000;2024-02-26T13:33:54;2.73;;;1.30;;
75772;SDS011;64381;0.000;0.000;2024-02-26T13:36:19;2.87;;;1.00;;
75772;SDS011;64381;0.000;0.000;2024-02-26T13:38:54;2.93;;;1.10;;
75772;SDS011;64381;0.000;0.000;2024-02-26T13:41:20;2.65;;;1.08;;
75772;SDS011;64381;0.000;0.000;2024-02-26T13:43:46;3.00;;;1.00;;
75772;SDS011;64381;0.000;0.000;2024-02-26T13:46:12;2.70;;;1.10;;
75772;SDS011;64381;0.000;0.000;2024-02-26T13:48:37;2.63;;;1.17;;
75772;SDS011;64381;0.000;0.000;2024-02-26T13:51:02;3.33;;;1.10;;
75772;SDS011;64381;0.000;0.000;2024-02-26T13:53:28;3.15;;;1.10;;
75772;SDS011;64381;0.000;0.000;2024-02-26T13:55:53;2.60;;;1.17;;
75772;SDS011;64381;0.000;0.000;2024-02-26T13:58:18;3.23;;;1.30;;
75772;SDS011;64381;0.000;0.000;2024-02-26T14:00:44;2.83;;;1.10;;
75772;SDS011;64381;0.000;0.000;2024-02-26T14:03:09;3.10;;;1.10;;
75772;SDS011;64381;0.000;0.000;2024-02-26T14:05:34;2.67;;;1.10;;
75772;SDS011;64381;0.000;0.000;2024-02-26T14:07:59;2.87;;;1.20;;
75772;SDS011;64381;0.000;0.000;2024-02-26T14:10:24;2.97;;;1.20;;
75772;SDS011;64381;0.000;0.000;2024-02-26T14:12:50;2.83;;;1.20;;
75772;SDS011;64381;0.000;0.000;2024-02-26T14:15:15;2.60;;;1.10;;
75772;SDS011;64381;0.000;0.000;2024-02-26T14:17:40;3.13;;;1.30;;
75772;SDS011;64381;0.000;0.000;2024-02-26T14:20:05;2.73;;;1.23;;
75772;SDS011;64381;0.000;0.000;2024-02-26T14:22:31;2.80;;;1.30;;
75772;SDS011;64381;0.000;0.000;2024-02-26T14:24:57;3.33;;;1.10;;
75772;SDS011;64381;0.000;0.000;2024-02-26T14:27:22;2.90;;;1.15;;
75772;SDS011;64381;0.000;0.000;2024-02-26T14:29:48;3.10;;;1.27;;
75772;SDS011;64381;0.000;0.000;2024-02-26T14:32:13;2.88;;;1.10;;
75772;SDS011;64381;0.000;0.000;2024-02-26T14:34:39;2.70;;;1.07;;
75772;SDS011;64381;0.000;0.000;2024-02-26T14:37:04;2.80;;;1.00;;
75772;SDS011;64381;0.000;0.000;2024-02-26T14:39:33;2.72;;;1.05;;
75772;SDS011;64381;0.000;0.000;2024-02-26T14:41:59;3.08;;;1.10;;
75772;SDS011;64381;0.000;0.000;2024-02-26T14:44:25;2.70;;;0.90;;
75772;SDS011;64381;0.000;0.000;2024-02-26T14:46:50;2.60;;;1.10;;
75772;SDS011;64381;0.000;0.000;2024-02-26T14:49:16;2.53;;;1.13;;
75772;SDS011;64381;0.000;0.000;2024-02-26T14:51:41;2.70;;;1.10;;
75772;SDS011;64381;0.000;0.000;2024-02-26T14:54:07;2.50;;;1.10;;
75772;SDS011;64381;0.000;0.000;2024-02-26T14:56:32;2.80;;;1.03;;